sensor_id;sensor_type;location;lat;lon;timestamp;temperature;humidity
15713;DHT22;7957;51.608;6.916;2023-06-26T00:00:47;24.50;1.00
15713;DHT22;7957;51.608;6.916;2023-06-26T00:03:14;24.50;1.00
15713;DHT22;7957;51.608;6.916;2023-06-26T00:05:41;24.50;1.00
15713;DHT22;7957;51.608;6.916;2023-06-26T00:08:08;24.50;1.00
15713;DHT22;7957;51.608;6.916;2023-06-26T00:10:36;24.50;1.00
15713;DHT22;7957;51.608;6.916;2023-06-26T00:13:03;24.40;1.00
15713;DHT22;7957;51.608;6.916;2023-06-26T00:15:30;24.40;1.00
15713;DHT22;7957;51.608;6.916;2023-06-26T00:17:57;24.40;1.00
15713;DHT22;7957;51.608;6.916;2023-06-26T00:20:25;24.40;6.70
15713;DHT22;7957;51.608;6.916;2023-06-26T00:22:52;24.30;15.20
15713;DHT22;7957;51.608;6.916;2023-06-26T00:25:19;24.30;24.60
15713;DHT22;7957;51.608;6.916;2023-06-26T00:27:47;24.30;34.50
15713;DHT22;7957;51.608;6.916;2023-06-26T00:30:14;24.30;40.50
15713;DHT22;7957;51.608;6.916;2023-06-26T00:32:41;24.20;50.80
15713;DHT22;7957;51.608;6.916;2023-06-26T00:35:08;24.20;57.50
15713;DHT22;7957;51.608;6.916;2023-06-26T00:37:35;24.20;65.10
15713;DHT22;7957;51.608;6.916;2023-06-26T00:40:02;24.20;77.60
15713;DHT22;7957;51.608;6.916;2023-06-26T00:42:31;24.20;82.60
15713;DHT22;7957;51.608;6.916;2023-06-26T00:44:59;24.10;92.10
15713;DHT22;7957;51.608;6.916;2023-06-26T00:47:27;24.10;95.50
15713;DHT22;7957;51.608;6.916;2023-06-26T00:49:54;24.10;98.10
15713;DHT22;7957;51.608;6.916;2023-06-26T00:52:22;24.10;99.90
15713;DHT22;7957;51.608;6.916;2023-06-26T00:54:50;24.00;99.90
15713;DHT22;7957;51.608;6.916;2023-06-26T00:57:18;24.00;99.90
15713;DHT22;7957;51.608;6.916;2023-06-26T00:59:45;24.00;99.90
15713;DHT22;7957;51.608;6.916;2023-06-26T01:02:13;24.00;99.90
15713;DHT22;7957;51.608;6.916;2023-06-26T01:04:43;24.00;99.90
15713;DHT22;7957;51.608;6.916;2023-06-26T01:07:13;23.90;99.90
15713;DHT22;7957;51.608;6.916;2023-06-26T01:09:42;23.90;99.90
15713;DHT22;7957;51.608;6.916;2023-06-26T01:12:09;23.90;99.90
15713;DHT22;7957;51.608;6.916;2023-06-26T01:14:36;23.90;99.90
15713;DHT22;7957;51.608;6.916;2023-06-26T01:17:04;23.90;99.90
15713;DHT22;7957;51.608;6.916;2023-06-26T01:19:33;23.80;99.90
15713;DHT22;7957;51.608;6.916;2023-06-26T01:22:08;23.80;99.90
15713;DHT22;7957;51.608;6.916;2023-06-26T01:24:47;23.80;99.90
15713;DHT22;7957;51.608;6.916;2023-06-26T01:27:21;23.80;99.90
15713;DHT22;7957;51.608;6.916;2023-06-26T01:29:51;23.70;99.90
15713;DHT22;7957;51.608;6.916;2023-06-26T01:32:19;23.70;99.90
15713;DHT22;7957;51.608;6.916;2023-06-26T01:34:47;23.70;99.90
15713;DHT22;7957;51.608;6.916;2023-06-26T01:37:14;23.70;99.90
15713;DHT22;7957;51.608;6.916;2023-06-26T01:39:41;23.70;99.90
15713;DHT22;7957;51.608;6.916;2023-06-26T01:42:08;23.70;99.90
15713;DHT22;7957;51.608;6.916;2023-06-26T01:44:41;23.60;99.90
15713;DHT22;7957;51.608;6.916;2023-06-26T01:47:12;23.60;99.90
15713;DHT22;7957;51.608;6.916;2023-06-26T01:49:47;23.60;99.90
15713;DHT22;7957;51.608;6.916;2023-06-26T01:52:19;23.60;99.90
15713;DHT22;7957;51.608;6.916;2023-06-26T01:54:54;23.60;99.90
15713;DHT22;7957;51.608;6.916;2023-06-26T01:57:23;23.60;99.90
15713;DHT22;7957;51.608;6.916;2023-06-26T01:59:55;23.60;99.90
15713;DHT22;7957;51.608;6.916;2023-06-26T02:02:24;23.50;99.90
15713;DHT22;7957;51.608;6.916;2023-06-26T02:04:51;23.50;99.90
15713;DHT22;7957;51.608;6.916;2023-06-26T02:07:18;23.50;99.90
15713;DHT22;7957;51.608;6.916;2023-06-26T02:09:45;23.40;99.90
15713;DHT22;7957;51.608;6.916;2023-06-26T02:12:12;23.50;99.90
15713;DHT22;7957;51.608;6.916;2023-06-26T02:14:40;23.40;99.90
15713;DHT22;7957;51.608;6.916;2023-06-26T02:17:08;23.40;99.90
15713;DHT22;7957;51.608;6.916;2023-06-26T02:19:35;23.40;99.90
15713;DHT22;7957;51.608;6.916;2023-06-26T02:22:02;23.30;99.90
15713;DHT22;7957;51.608;6.916;2023-06-26T02:24:29;23.30;99.90
15713;DHT22;7957;51.608;6.916;2023-06-26T02:26:56;23.30;99.90
15713;DHT22;7957;51.608;6.916;2023-06-26T02:29:23;23.30;99.90
15713;DHT22;7957;51.608;6.916;2023-06-26T02:31:50;23.30;99.90
15713;DHT22;7957;51.608;6.916;2023-06-26T02:34:18;23.30;99.90
15713;DHT22;7957;51.608;6.916;2023-06-26T02:36:46;23.20;99.90
15713;DHT22;7957;51.608;6.916;2023-06-26T02:39:13;23.20;99.90
15713;DHT22;7957;51.608;6.916;2023-06-26T02:41:40;23.20;99.90
15713;DHT22;7957;51.608;6.916;2023-06-26T02:44:07;23.20;99.90
15713;DHT22;7957;51.608;6.916;2023-06-26T02:46:34;23.20;99.90
15713;DHT22;7957;51.608;6.916;2023-06-26T02:49:01;23.10;99.90
15713;DHT22;7957;51.608;6.916;2023-06-26T02:51:29;23.10;99.90
15713;DHT22;7957;51.608;6.916;2023-06-26T02:53:56;23.10;99.90
15713;DHT22;7957;51.608;6.916;2023-06-26T02:56:23;23.10;99.90
15713;DHT22;7957;51.608;6.916;2023-06-26T02:58:57;23.10;99.90
15713;DHT22;7957;51.608;6.916;2023-06-26T03:01:24;23.10;99.90
15713;DHT22;7957;51.608;6.916;2023-06-26T03:03:51;23.10;99.90
15713;DHT22;7957;51.608;6.916;2023-06-26T03:06:18;23.00;99.90
15713;DHT22;7957;51.608;6.916;2023-06-26T03:08:46;23.00;99.90
15713;DHT22;7957;51.608;6.916;2023-06-26T03:11:13;23.00;99.90
15713;DHT22;7957;51.608;6.916;2023-06-26T03:13:40;23.00;99.90
15713;DHT22;7957;51.608;6.916;2023-06-26T03:16:07;23.00;99.90
15713;DHT22;7957;51.608;6.916;2023-06-26T03:18:34;22.90;99.90
15713;DHT22;7957;51.608;6.916;2023-06-26T03:21:01;22.90;99.90
15713;DHT22;7957;51.608;6.916;2023-06-26T03:23:28;22.90;99.90
15713;DHT22;7957;51.608;6.916;2023-06-26T03:25:56;22.90;99.90
15713;DHT22;7957;51.608;6.916;2023-06-26T03:28:23;22.90;99.90
15713;DHT22;7957;51.608;6.916;2023-06-26T03:30:50;22.90;99.90
15713;DHT22;7957;51.608;6.916;2023-06-26T03:33:17;22.90;99.90
15713;DHT22;7957;51.608;6.916;2023-06-26T03:35:44;22.90;99.90
15713;DHT22;7957;51.608;6.916;2023-06-26T03:38:11;22.90;99.90
15713;DHT22;7957;51.608;6.916;2023-06-26T03:40:38;22.80;99.90
15713;DHT22;7957;51.608;6.916;2023-06-26T03:43:06;22.80;99.90
15713;DHT22;7957;51.608;6.916;2023-06-26T03:45:33;22.80;99.90
15713;DHT22;7957;51.608;6.916;2023-06-26T03:48:00;22.80;99.90
15713;DHT22;7957;51.608;6.916;2023-06-26T03:50:27;22.80;99.90
15713;DHT22;7957;51.608;6.916;2023-06-26T03:52:54;22.80;99.90
15713;DHT22;7957;51.608;6.916;2023-06-26T03:55:21;22.80;99.90
15713;DHT22;7957;51.608;6.916;2023-06-26T03:57:49;22.80;99.90
15713;DHT22;7957;51.608;6.916;2023-06-26T04:00:18;22.80;99.90
15713;DHT22;7957;51.608;6.916;2023-06-26T04:02:45;22.80;99.90
15713;DHT22;7957;51.608;6.916;2023-06-26T04:05:12;22.80;99.90
15713;DHT22;7957;51.608;6.916;2023-06-26T04:07:39;22.80;1.00
15713;DHT22;7957;51.608;6.916;2023-06-26T04:10:07;22.70;1.00
15713;DHT22;7957;51.608;6.916;2023-06-26T04:12:34;22.70;1.00
15713;DHT22;7957;51.608;6.916;2023-06-26T04:15:01;22.70;1.00
15713;DHT22;7957;51.608;6.916;2023-06-26T04:17:29;22.70;1.00
15713;DHT22;7957;51.608;6.916;2023-06-26T04:19:56;22.70;1.00
15713;DHT22;7957;51.608;6.916;2023-06-26T04:22:23;22.70;1.00
15713;DHT22;7957;51.608;6.916;2023-06-26T04:24:50;22.70;1.00
15713;DHT22;7957;51.608;6.916;2023-06-26T04:27:17;22.70;1.00
15713;DHT22;7957;51.608;6.916;2023-06-26T04:29:44;22.70;1.00
15713;DHT22;7957;51.608;6.916;2023-06-26T04:32:11;22.70;1.00
15713;DHT22;7957;51.608;6.916;2023-06-26T04:34:40;22.70;1.00
15713;DHT22;7957;51.608;6.916;2023-06-26T04:37:09;22.70;1.00
15713;DHT22;7957;51.608;6.916;2023-06-26T04:39:36;22.70;1.00
15713;DHT22;7957;51.608;6.916;2023-06-26T04:42:04;22.70;1.00
15713;DHT22;7957;51.608;6.916;2023-06-26T04:44:32;22.70;1.00
15713;DHT22;7957;51.608;6.916;2023-06-26T04:46:59;22.70;1.00
15713;DHT22;7957;51.608;6.916;2023-06-26T04:49:26;22.70;1.00
15713;DHT22;7957;51.608;6.916;2023-06-26T04:51:55;22.70;1.00
15713;DHT22;7957;51.608;6.916;2023-06-26T04:54:26;22.70;1.00
15713;DHT22;7957;51.608;6.916;2023-06-26T04:56:53;22.70;1.00
15713;DHT22;7957;51.608;6.916;2023-06-26T04:59:20;22.70;1.00
15713;DHT22;7957;51.608;6.916;2023-06-26T05:01:46;22.70;1.00
15713;DHT22;7957;51.608;6.916;2023-06-26T05:04:13;22.70;1.00
15713;DHT22;7957;51.608;6.916;2023-06-26T05:06:40;22.80;1.00
15713;DHT22;7957;51.608;6.916;2023-06-26T05:09:09;22.80;1.00
15713;DHT22;7957;51.608;6.916;2023-06-26T05:11:36;22.80;1.00
15713;DHT22;7957;51.608;6.916;2023-06-26T05:14:03;22.80;1.00
15713;DHT22;7957;51.608;6.916;2023-06-26T05:16:38;22.80;1.00
15713;DHT22;7957;51.608;6.916;2023-06-26T05:19:05;22.80;1.00
15713;DHT22;7957;51.608;6.916;2023-06-26T05:21:34;22.90;1.00
15713;DHT22;7957;51.608;6.916;2023-06-26T05:24:02;22.90;1.00
15713;DHT22;7957;51.608;6.916;2023-06-26T05:26:32;22.90;1.00
15713;DHT22;7957;51.608;6.916;2023-06-26T05:28:59;22.90;1.00
15713;DHT22;7957;51.608;6.916;2023-06-26T05:31:27;22.90;1.00
15713;DHT22;7957;51.608;6.916;2023-06-26T05:33:55;23.00;1.00
15713;DHT22;7957;51.608;6.916;2023-06-26T05:36:24;23.00;1.00
15713;DHT22;7957;51.608;6.916;2023-06-26T05:38:54;23.00;1.00
15713;DHT22;7957;51.608;6.916;2023-06-26T05:41:22;22.90;1.00
15713;DHT22;7957;51.608;6.916;2023-06-26T05:43:51;22.90;1.00
15713;DHT22;7957;51.608;6.916;2023-06-26T05:46:19;22.90;1.00
15713;DHT22;7957;51.608;6.916;2023-06-26T05:48:46;23.00;1.00
15713;DHT22;7957;51.608;6.916;2023-06-26T05:51:14;23.00;1.00
15713;DHT22;7957;51.608;6.916;2023-06-26T05:53:41;23.00;1.00
15713;DHT22;7957;51.608;6.916;2023-06-26T05:56:09;23.00;1.00
15713;DHT22;7957;51.608;6.916;2023-06-26T05:58:37;23.00;1.00
15713;DHT22;7957;51.608;6.916;2023-06-26T06:01:06;23.00;1.00
15713;DHT22;7957;51.608;6.916;2023-06-26T06:03:33;23.10;1.00
15713;DHT22;7957;51.608;6.916;2023-06-26T06:06:00;23.10;1.00
15713;DHT22;7957;51.608;6.916;2023-06-26T06:08:27;23.10;1.00
15713;DHT22;7957;51.608;6.916;2023-06-26T06:10:54;23.10;1.00
15713;DHT22;7957;51.608;6.916;2023-06-26T06:13:21;23.10;1.00
15713;DHT22;7957;51.608;6.916;2023-06-26T06:15:48;23.20;1.00
15713;DHT22;7957;51.608;6.916;2023-06-26T06:18:17;23.10;1.00
15713;DHT22;7957;51.608;6.916;2023-06-26T06:20:44;23.10;1.00
15713;DHT22;7957;51.608;6.916;2023-06-26T06:23:11;23.10;1.00
15713;DHT22;7957;51.608;6.916;2023-06-26T06:25:37;23.10;1.00
15713;DHT22;7957;51.608;6.916;2023-06-26T06:28:04;23.10;1.00
15713;DHT22;7957;51.608;6.916;2023-06-26T06:30:32;23.10;1.00
15713;DHT22;7957;51.608;6.916;2023-06-26T06:32:58;23.10;1.00
15713;DHT22;7957;51.608;6.916;2023-06-26T06:35:27;23.10;1.00
15713;DHT22;7957;51.608;6.916;2023-06-26T06:37:54;23.10;1.00
15713;DHT22;7957;51.608;6.916;2023-06-26T06:40:21;23.10;1.00
15713;DHT22;7957;51.608;6.916;2023-06-26T06:42:48;23.10;1.00
15713;DHT22;7957;51.608;6.916;2023-06-26T06:45:15;23.10;1.00
15713;DHT22;7957;51.608;6.916;2023-06-26T06:47:42;23.10;1.00
15713;DHT22;7957;51.608;6.916;2023-06-26T06:50:09;23.10;1.00
15713;DHT22;7957;51.608;6.916;2023-06-26T06:52:38;23.10;1.00
15713;DHT22;7957;51.608;6.916;2023-06-26T06:55:07;23.20;1.00
15713;DHT22;7957;51.608;6.916;2023-06-26T06:57:35;23.20;1.00
15713;DHT22;7957;51.608;6.916;2023-06-26T07:00:04;23.20;1.00
15713;DHT22;7957;51.608;6.916;2023-06-26T07:02:34;23.20;1.00
15713;DHT22;7957;51.608;6.916;2023-06-26T07:05:01;23.20;1.00
15713;DHT22;7957;51.608;6.916;2023-06-26T07:07:29;23.30;1.00
15713;DHT22;7957;51.608;6.916;2023-06-26T07:09:59;23.30;1.00
15713;DHT22;7957;51.608;6.916;2023-06-26T07:12:26;23.30;1.00
15713;DHT22;7957;51.608;6.916;2023-06-26T07:14:54;23.40;1.00
15713;DHT22;7957;51.608;6.916;2023-06-26T07:17:22;23.40;1.00
15713;DHT22;7957;51.608;6.916;2023-06-26T07:19:49;23.40;1.00
15713;DHT22;7957;51.608;6.916;2023-06-26T07:22:16;23.50;1.00
15713;DHT22;7957;51.608;6.916;2023-06-26T07:24:45;23.50;1.00
15713;DHT22;7957;51.608;6.916;2023-06-26T07:27:14;23.50;1.00
15713;DHT22;7957;51.608;6.916;2023-06-26T07:29:40;23.50;1.00
15713;DHT22;7957;51.608;6.916;2023-06-26T07:32:08;23.50;1.00
15713;DHT22;7957;51.608;6.916;2023-06-26T07:34:35;23.50;1.00
15713;DHT22;7957;51.608;6.916;2023-06-26T07:37:02;23.50;1.00
15713;DHT22;7957;51.608;6.916;2023-06-26T07:39:29;23.50;1.00
15713;DHT22;7957;51.608;6.916;2023-06-26T07:41:56;23.50;1.00
15713;DHT22;7957;51.608;6.916;2023-06-26T07:44:26;23.60;1.00
15713;DHT22;7957;51.608;6.916;2023-06-26T07:46:53;23.60;1.00
15713;DHT22;7957;51.608;6.916;2023-06-26T07:49:20;23.60;1.00
15713;DHT22;7957;51.608;6.916;2023-06-26T07:51:47;23.60;1.00
15713;DHT22;7957;51.608;6.916;2023-06-26T07:54:14;23.60;1.00
15713;DHT22;7957;51.608;6.916;2023-06-26T07:56:53;23.70;1.00
15713;DHT22;7957;51.608;6.916;2023-06-26T07:59:20;23.70;1.00
15713;DHT22;7957;51.608;6.916;2023-06-26T08:01:49;23.70;1.00
15713;DHT22;7957;51.608;6.916;2023-06-26T08:04:17;23.80;1.00
15713;DHT22;7957;51.608;6.916;2023-06-26T08:06:45;23.80;1.00
15713;DHT22;7957;51.608;6.916;2023-06-26T08:09:12;23.80;1.00
15713;DHT22;7957;51.608;6.916;2023-06-26T08:11:39;23.90;1.00
15713;DHT22;7957;51.608;6.916;2023-06-26T08:14:06;23.90;1.00
15713;DHT22;7957;51.608;6.916;2023-06-26T08:16:33;23.90;1.00
15713;DHT22;7957;51.608;6.916;2023-06-26T08:19:01;23.90;1.00
15713;DHT22;7957;51.608;6.916;2023-06-26T08:21:28;23.90;1.00
15713;DHT22;7957;51.608;6.916;2023-06-26T08:23:55;23.90;1.00
15713;DHT22;7957;51.608;6.916;2023-06-26T08:26:22;23.90;1.00
15713;DHT22;7957;51.608;6.916;2023-06-26T08:28:49;23.90;1.00
15713;DHT22;7957;51.608;6.916;2023-06-26T08:31:16;24.00;1.00
15713;DHT22;7957;51.608;6.916;2023-06-26T08:33:43;24.00;1.00
15713;DHT22;7957;51.608;6.916;2023-06-26T08:36:11;24.10;1.00
15713;DHT22;7957;51.608;6.916;2023-06-26T08:38:39;24.20;1.00
15713;DHT22;7957;51.608;6.916;2023-06-26T08:41:06;24.20;1.00
15713;DHT22;7957;51.608;6.916;2023-06-26T08:43:33;24.20;1.00
15713;DHT22;7957;51.608;6.916;2023-06-26T08:46:00;24.20;1.00
15713;DHT22;7957;51.608;6.916;2023-06-26T08:48:29;24.20;1.00
15713;DHT22;7957;51.608;6.916;2023-06-26T08:51:01;24.20;1.00
15713;DHT22;7957;51.608;6.916;2023-06-26T08:53:40;24.30;1.00
15713;DHT22;7957;51.608;6.916;2023-06-26T08:56:11;24.40;1.00
15713;DHT22;7957;51.608;6.916;2023-06-26T08:58:40;24.40;1.00
15713;DHT22;7957;51.608;6.916;2023-06-26T09:01:07;24.50;1.00
15713;DHT22;7957;51.608;6.916;2023-06-26T09:03:34;24.50;1.00
15713;DHT22;7957;51.608;6.916;2023-06-26T09:06:02;24.50;1.00
15713;DHT22;7957;51.608;6.916;2023-06-26T09:08:28;24.60;1.00
15713;DHT22;7957;51.608;6.916;2023-06-26T09:10:58;24.60;1.00
15713;DHT22;7957;51.608;6.916;2023-06-26T09:13:25;24.60;1.00
15713;DHT22;7957;51.608;6.916;2023-06-26T09:15:54;24.60;1.00
15713;DHT22;7957;51.608;6.916;2023-06-26T09:18:21;24.60;1.00
15713;DHT22;7957;51.608;6.916;2023-06-26T09:20:48;24.70;1.00
15713;DHT22;7957;51.608;6.916;2023-06-26T09:23:16;24.70;1.00
15713;DHT22;7957;51.608;6.916;2023-06-26T09:25:42;24.80;1.00
15713;DHT22;7957;51.608;6.916;2023-06-26T09:28:12;24.90;1.00
15713;DHT22;7957;51.608;6.916;2023-06-26T09:30:39;24.90;1.00
15713;DHT22;7957;51.608;6.916;2023-06-26T09:33:15;25.00;1.00
15713;DHT22;7957;51.608;6.916;2023-06-26T09:35:43;25.10;1.00
15713;DHT22;7957;51.608;6.916;2023-06-26T09:38:11;25.20;1.00
15713;DHT22;7957;51.608;6.916;2023-06-26T09:40:38;25.20;99.90
15713;DHT22;7957;51.608;6.916;2023-06-26T09:43:05;25.20;99.90
15713;DHT22;7957;51.608;6.916;2023-06-26T09:45:34;25.20;99.90
15713;DHT22;7957;51.608;6.916;2023-06-26T09:48:02;25.30;99.90
15713;DHT22;7957;51.608;6.916;2023-06-26T09:50:30;25.30;99.90
15713;DHT22;7957;51.608;6.916;2023-06-26T09:53:07;25.30;99.90
15713;DHT22;7957;51.608;6.916;2023-06-26T09:55:35;25.40;99.90
15713;DHT22;7957;51.608;6.916;2023-06-26T09:58:02;25.50;99.90
15713;DHT22;7957;51.608;6.916;2023-06-26T10:00:30;25.60;99.90
15713;DHT22;7957;51.608;6.916;2023-06-26T10:02:59;25.80;99.90
15713;DHT22;7957;51.608;6.916;2023-06-26T10:05:26;26.00;99.90
15713;DHT22;7957;51.608;6.916;2023-06-26T10:07:54;26.00;99.90
15713;DHT22;7957;51.608;6.916;2023-06-26T10:10:23;26.10;99.90
15713;DHT22;7957;51.608;6.916;2023-06-26T10:12:53;26.10;99.90
15713;DHT22;7957;51.608;6.916;2023-06-26T10:15:23;26.10;99.90
15713;DHT22;7957;51.608;6.916;2023-06-26T10:17:54;26.20;99.90
15713;DHT22;7957;51.608;6.916;2023-06-26T10:20:25;26.40;99.90
15713;DHT22;7957;51.608;6.916;2023-06-26T10:22:55;26.50;99.90
15713;DHT22;7957;51.608;6.916;2023-06-26T10:25:24;26.70;99.90
15713;DHT22;7957;51.608;6.916;2023-06-26T10:27:54;26.80;99.90
15713;DHT22;7957;51.608;6.916;2023-06-26T10:30:26;26.80;55.40
15713;DHT22;7957;51.608;6.916;2023-06-26T10:32:55;26.80;12.20
15713;DHT22;7957;51.608;6.916;2023-06-26T10:35:25;26.70;1.00
15713;DHT22;7957;51.608;6.916;2023-06-26T10:38:00;26.70;1.00
15713;DHT22;7957;51.608;6.916;2023-06-26T10:40:30;26.70;1.00
15713;DHT22;7957;51.608;6.916;2023-06-26T10:43:06;26.60;1.00
15713;DHT22;7957;51.608;6.916;2023-06-26T10:45:34;26.50;1.00
15713;DHT22;7957;51.608;6.916;2023-06-26T10:48:02;26.50;1.00
15713;DHT22;7957;51.608;6.916;2023-06-26T10:50:31;26.50;1.00
15713;DHT22;7957;51.608;6.916;2023-06-26T10:53:15;26.40;1.00
15713;DHT22;7957;51.608;6.916;2023-06-26T10:55:50;26.40;1.00
15713;DHT22;7957;51.608;6.916;2023-06-26T10:58:33;26.30;1.00
15713;DHT22;7957;51.608;6.916;2023-06-26T11:01:20;26.30;1.00
15713;DHT22;7957;51.608;6.916;2023-06-26T11:03:49;26.40;1.00
15713;DHT22;7957;51.608;6.916;2023-06-26T11:06:20;26.40;1.00
15713;DHT22;7957;51.608;6.916;2023-06-26T11:08:48;26.50;1.00
15713;DHT22;7957;51.608;6.916;2023-06-26T11:11:16;26.60;1.00
15713;DHT22;7957;51.608;6.916;2023-06-26T11:13:45;26.70;1.00
15713;DHT22;7957;51.608;6.916;2023-06-26T11:16:12;26.90;1.00
15713;DHT22;7957;51.608;6.916;2023-06-26T11:18:40;27.20;1.00
15713;DHT22;7957;51.608;6.916;2023-06-26T11:21:07;27.50;1.00
15713;DHT22;7957;51.608;6.916;2023-06-26T11:23:37;27.70;1.00
15713;DHT22;7957;51.608;6.916;2023-06-26T11:26:16;27.90;1.00
15713;DHT22;7957;51.608;6.916;2023-06-26T11:28:51;28.20;1.00
15713;DHT22;7957;51.608;6.916;2023-06-26T11:31:27;28.50;1.00
15713;DHT22;7957;51.608;6.916;2023-06-26T11:33:56;28.70;1.00
15713;DHT22;7957;51.608;6.916;2023-06-26T11:36:24;29.00;99.90
15713;DHT22;7957;51.608;6.916;2023-06-26T11:38:56;29.20;99.90
15713;DHT22;7957;51.608;6.916;2023-06-26T11:41:25;29.10;99.90
15713;DHT22;7957;51.608;6.916;2023-06-26T11:43:52;29.00;99.90
15713;DHT22;7957;51.608;6.916;2023-06-26T11:46:20;28.90;99.90
15713;DHT22;7957;51.608;6.916;2023-06-26T11:48:47;29.00;99.90
15713;DHT22;7957;51.608;6.916;2023-06-26T11:51:14;28.80;99.90
15713;DHT22;7957;51.608;6.916;2023-06-26T11:53:42;28.80;99.90
15713;DHT22;7957;51.608;6.916;2023-06-26T11:56:12;28.80;99.90
15713;DHT22;7957;51.608;6.916;2023-06-26T11:58:57;28.80;99.90
15713;DHT22;7957;51.608;6.916;2023-06-26T12:01:26;28.80;99.90
15713;DHT22;7957;51.608;6.916;2023-06-26T12:03:58;28.80;99.90
15713;DHT22;7957;51.608;6.916;2023-06-26T12:06:25;28.90;99.90
15713;DHT22;7957;51.608;6.916;2023-06-26T12:08:52;28.90;99.90
15713;DHT22;7957;51.608;6.916;2023-06-26T12:11:22;28.80;97.20
15713;DHT22;7957;51.608;6.916;2023-06-26T12:13:50;28.80;77.80
15713;DHT22;7957;51.608;6.916;2023-06-26T12:16:17;28.70;36.00
15713;DHT22;7957;51.608;6.916;2023-06-26T12:18:44;28.90;22.10
15713;DHT22;7957;51.608;6.916;2023-06-26T12:24:18;29.00;1.00
15713;DHT22;7957;51.608;6.916;2023-06-26T12:26:50;29.00;1.00
15713;DHT22;7957;51.608;6.916;2023-06-26T12:29:19;28.90;1.00
15713;DHT22;7957;51.608;6.916;2023-06-26T12:31:50;29.00;1.00
15713;DHT22;7957;51.608;6.916;2023-06-26T12:34:19;29.00;1.00
15713;DHT22;7957;51.608;6.916;2023-06-26T12:36:47;29.00;1.00
15713;DHT22;7957;51.608;6.916;2023-06-26T12:39:16;29.10;1.00
15713;DHT22;7957;51.608;6.916;2023-06-26T12:41:48;29.00;1.00
15713;DHT22;7957;51.608;6.916;2023-06-26T12:44:17;28.90;1.00
15713;DHT22;7957;51.608;6.916;2023-06-26T12:46:46;28.90;1.00
15713;DHT22;7957;51.608;6.916;2023-06-26T12:49:13;28.80;1.00
15713;DHT22;7957;51.608;6.916;2023-06-26T12:51:40;28.80;1.00
15713;DHT22;7957;51.608;6.916;2023-06-26T12:54:08;28.90;1.00
15713;DHT22;7957;51.608;6.916;2023-06-26T12:56:35;29.00;1.00
15713;DHT22;7957;51.608;6.916;2023-06-26T12:59:03;29.00;1.00
15713;DHT22;7957;51.608;6.916;2023-06-26T13:01:30;29.10;1.00
15713;DHT22;7957;51.608;6.916;2023-06-26T13:03:58;29.20;1.00
15713;DHT22;7957;51.608;6.916;2023-06-26T13:06:25;29.30;1.00
15713;DHT22;7957;51.608;6.916;2023-06-26T13:08:52;29.50;1.00
15713;DHT22;7957;51.608;6.916;2023-06-26T13:11:19;29.50;1.00
15713;DHT22;7957;51.608;6.916;2023-06-26T13:13:48;29.50;1.00
15713;DHT22;7957;51.608;6.916;2023-06-26T13:16:16;29.60;1.00
15713;DHT22;7957;51.608;6.916;2023-06-26T13:18:44;29.50;1.00
15713;DHT22;7957;51.608;6.916;2023-06-26T13:21:11;29.50;1.00
15713;DHT22;7957;51.608;6.916;2023-06-26T13:23:38;29.50;1.00
15713;DHT22;7957;51.608;6.916;2023-06-26T13:26:05;29.40;1.00
15713;DHT22;7957;51.608;6.916;2023-06-26T13:28:32;29.40;1.00
15713;DHT22;7957;51.608;6.916;2023-06-26T13:30:59;29.30;1.00
15713;DHT22;7957;51.608;6.916;2023-06-26T13:33:29;29.30;1.00
15713;DHT22;7957;51.608;6.916;2023-06-26T13:35:59;29.30;1.00
15713;DHT22;7957;51.608;6.916;2023-06-26T13:38:32;29.40;1.00
15713;DHT22;7957;51.608;6.916;2023-06-26T13:41:01;29.50;1.00
15713;DHT22;7957;51.608;6.916;2023-06-26T13:43:32;29.60;1.00
15713;DHT22;7957;51.608;6.916;2023-06-26T13:46:00;29.70;1.00
15713;DHT22;7957;51.608;6.916;2023-06-26T13:48:29;29.80;1.00
15713;DHT22;7957;51.608;6.916;2023-06-26T13:50:58;29.80;1.00
15713;DHT22;7957;51.608;6.916;2023-06-26T13:53:27;29.80;1.00
15713;DHT22;7957;51.608;6.916;2023-06-26T13:55:53;29.80;1.00
15713;DHT22;7957;51.608;6.916;2023-06-26T13:58:20;28.50;99.90
15713;DHT22;7957;51.608;6.916;2023-06-26T14:00:48;28.00;99.90
15713;DHT22;7957;51.608;6.916;2023-06-26T14:03:14;27.30;99.90
15713;DHT22;7957;51.608;6.916;2023-06-26T14:05:44;27.00;99.90
15713;DHT22;7957;51.608;6.916;2023-06-26T14:08:12;26.70;99.90
15713;DHT22;7957;51.608;6.916;2023-06-26T14:10:39;26.40;99.90
15713;DHT22;7957;51.608;6.916;2023-06-26T14:13:06;26.70;99.90
15713;DHT22;7957;51.608;6.916;2023-06-26T14:15:34;26.90;99.90
15713;DHT22;7957;51.608;6.916;2023-06-26T14:18:01;27.10;99.90
15713;DHT22;7957;51.608;6.916;2023-06-26T14:20:29;27.00;99.90
15713;DHT22;7957;51.608;6.916;2023-06-26T14:22:59;27.40;99.90
15713;DHT22;7957;51.608;6.916;2023-06-26T14:25:27;27.80;99.90
15713;DHT22;7957;51.608;6.916;2023-06-26T14:27:55;28.00;99.90
15713;DHT22;7957;51.608;6.916;2023-06-26T14:30:22;28.00;99.90
15713;DHT22;7957;51.608;6.916;2023-06-26T14:32:49;28.00;99.90
15713;DHT22;7957;51.608;6.916;2023-06-26T14:35:16;28.00;99.90
15713;DHT22;7957;51.608;6.916;2023-06-26T14:37:43;28.00;99.90
15713;DHT22;7957;51.608;6.916;2023-06-26T14:40:13;28.00;99.90
15713;DHT22;7957;51.608;6.916;2023-06-26T14:42:39;28.00;99.90
15713;DHT22;7957;51.608;6.916;2023-06-26T14:45:09;28.00;99.90
15713;DHT22;7957;51.608;6.916;2023-06-26T14:47:36;28.00;99.90
15713;DHT22;7957;51.608;6.916;2023-06-26T14:50:04;28.00;99.90
15713;DHT22;7957;51.608;6.916;2023-06-26T14:52:31;27.90;99.90
15713;DHT22;7957;51.608;6.916;2023-06-26T14:54:58;27.90;99.90
15713;DHT22;7957;51.608;6.916;2023-06-26T14:57:26;27.80;99.90
15713;DHT22;7957;51.608;6.916;2023-06-26T14:59:53;27.80;99.90
15713;DHT22;7957;51.608;6.916;2023-06-26T15:02:20;27.70;99.90
15713;DHT22;7957;51.608;6.916;2023-06-26T15:04:47;27.50;99.90
15713;DHT22;7957;51.608;6.916;2023-06-26T15:07:14;27.40;99.90
15713;DHT22;7957;51.608;6.916;2023-06-26T15:09:41;27.30;99.90
15713;DHT22;7957;51.608;6.916;2023-06-26T15:12:08;27.30;99.90
15713;DHT22;7957;51.608;6.916;2023-06-26T15:14:37;27.30;99.90
15713;DHT22;7957;51.608;6.916;2023-06-26T15:17:04;27.30;99.90
15713;DHT22;7957;51.608;6.916;2023-06-26T15:19:31;27.20;99.90
15713;DHT22;7957;51.608;6.916;2023-06-26T15:21:58;27.20;99.90
15713;DHT22;7957;51.608;6.916;2023-06-26T15:24:27;27.10;99.90
15713;DHT22;7957;51.608;6.916;2023-06-26T15:26:54;27.20;99.90
15713;DHT22;7957;51.608;6.916;2023-06-26T15:29:21;27.30;99.90
15713;DHT22;7957;51.608;6.916;2023-06-26T15:31:49;27.40;99.90
15713;DHT22;7957;51.608;6.916;2023-06-26T15:34:16;27.40;99.90
15713;DHT22;7957;51.608;6.916;2023-06-26T15:36:43;27.50;99.90
15713;DHT22;7957;51.608;6.916;2023-06-26T15:39:10;27.40;99.90
15713;DHT22;7957;51.608;6.916;2023-06-26T15:41:37;27.50;99.90
15713;DHT22;7957;51.608;6.916;2023-06-26T15:44:04;27.60;99.90
15713;DHT22;7957;51.608;6.916;2023-06-26T15:46:30;27.60;99.90
15713;DHT22;7957;51.608;6.916;2023-06-26T15:48:59;27.60;99.90
15713;DHT22;7957;51.608;6.916;2023-06-26T15:51:26;27.40;99.90
15713;DHT22;7957;51.608;6.916;2023-06-26T15:53:53;27.40;99.90
15713;DHT22;7957;51.608;6.916;2023-06-26T15:56:22;27.20;99.90
15713;DHT22;7957;51.608;6.916;2023-06-26T15:58:48;27.20;99.90
15713;DHT22;7957;51.608;6.916;2023-06-26T16:01:15;27.00;99.90
15713;DHT22;7957;51.608;6.916;2023-06-26T16:03:42;26.90;99.90